San Julian, Argentina
Current Conditions -  °F | °C
As of 7:00 PM on Friday 19 Dec 2014 (Local Time) from SAWG Reporting Station
Scattered Clouds Scattered Clouds  
Wind Chill: 36°   Ceiling: Unl
Heat Index: 45°   Visibility: 6mi
Dew Point: 30°   Wind: 22mph
Humidity: 57%   Direction: 270°W
Pressure: 29.15"   Gusts: NA
Location:  49.31°S, 67.71°W
Report Text: SAWG 192200Z 27019KT 9999 FEW025TCU SCT03007/M01 Q0987
Loading
Personal Weather Stations






























Interactive Weather Map New forecast layout! Learn more

10-Day Weather Forecast

Advertisements
Track Severe Weather on mobile